sensor_id;sensor_type;location;lat;lon;timestamp;pressure;altitude;pressure_sealevel;temperature;humidity
38038;BME280;23843;51.320;12.340;2023-02-19T05:30:27;100113.41;;;9.56;100.00
38038;BME280;23843;51.320;12.340;2023-02-19T05:32:53;100118.72;;;9.56;100.00
38038;BME280;23843;51.320;12.340;2023-02-19T05:35:18;100123.13;;;9.56;100.00
38038;BME280;23843;51.320;12.340;2023-02-19T05:37:44;100118.59;;;9.58;100.00
38038;BME280;23843;51.320;12.340;2023-02-19T05:40:10;100122.44;;;9.52;100.00
38038;BME280;23843;51.320;12.340;2023-02-19T05:42:36;100123.41;;;9.51;100.00
38038;BME280;23843;51.320;12.340;2023-02-19T05:45:02;100125.03;;;9.54;100.00
38038;BME280;23843;51.320;12.340;2023-02-19T05:47:29;100130.38;;;9.52;100.00
38038;BME280;23843;51.320;12.340;2023-02-19T05:49:55;100124.31;;;9.50;100.00
38038;BME280;23843;51.320;12.340;2023-02-19T05:52:24;100123.53;;;9.48;100.00
38038;BME280;23843;51.320;12.340;2023-02-19T05:54:49;100127.19;;;9.46;100.00
38038;BME280;23843;51.320;12.340;2023-02-19T05:57:15;100132.66;;;9.42;100.00
38038;BME280;23843;51.320;12.340;2023-02-19T05:59:40;100132.03;;;9.37;100.00
38038;BME280;23843;51.320;12.340;2023-02-19T06:02:06;100145.44;;;9.34;100.00
38038;BME280;23843;51.320;12.340;2023-02-19T06:04:33;100152.59;;;9.32;100.00
38038;BME280;23843;51.320;12.340;2023-02-19T06:06:58;100144.56;;;9.34;100.00
38038;BME280;23843;51.320;12.340;2023-02-19T06:09:24;100147.06;;;9.37;100.00
38038;BME280;23843;51.320;12.340;2023-02-19T06:11:50;100149.53;;;9.40;100.00
38038;BME280;23843;51.320;12.340;2023-02-19T06:14:15;100152.41;;;9.35;100.00
38038;BME280;23843;51.320;12.340;2023-02-19T06:16:41;100160.28;;;9.37;100.00
38038;BME280;23843;51.320;12.340;2023-02-19T06:19:06;100165.31;;;9.41;100.00
38038;BME280;23843;51.320;12.340;2023-02-19T06:21:33;100171.53;;;9.40;100.00
38038;BME280;23843;51.320;12.340;2023-02-19T06:24:04;100173.03;;;9.46;100.00
38038;BME280;23843;51.320;12.340;2023-02-19T06:26:30;100176.28;;;9.51;100.00
38038;BME280;23843;51.320;12.340;2023-02-19T06:28:56;100177.81;;;9.55;100.00
38038;BME280;23843;51.320;12.340;2023-02-19T06:31:22;100183.19;;;9.54;100.00
38038;BME280;23843;51.320;12.340;2023-02-19T06:33:47;100190.00;;;9.58;100.00
38038;BME280;23843;51.320;12.340;2023-02-19T06:36:15;100189.78;;;9.62;100.00
38038;BME280;23843;51.320;12.340;2023-02-19T06:38:42;100192.25;;;9.65;100.00
38038;BME280;23843;51.320;12.340;2023-02-19T06:41:09;100191.41;;;9.65;100.00
38038;BME280;23843;51.320;12.340;2023-02-19T06:43:35;100202.22;;;9.60;100.00
38038;BME280;23843;51.320;12.340;2023-02-19T06:46:03;100215.13;;;9.67;100.00
38038;BME280;23843;51.320;12.340;2023-02-19T06:48:31;100220.50;;;9.65;100.00
38038;BME280;23843;51.320;12.340;2023-02-19T06:50:57;100237.16;;;9.67;100.00
38038;BME280;23843;51.320;12.340;2023-02-19T06:53:24;100243.06;;;9.55;100.00
38038;BME280;23843;51.320;12.340;2023-02-19T06:55:58;100255.69;;;9.50;100.00
38038;BME280;23843;51.320;12.340;2023-02-19T06:58:25;100262.84;;;9.30;100.00
38038;BME280;23843;51.320;12.340;2023-02-19T07:00:51;100256.28;;;9.03;100.00
38038;BME280;23843;51.320;12.340;2023-02-19T07:03:18;100269.88;;;8.95;100.00
38038;BME280;23843;51.320;12.340;2023-02-19T07:05:44;100273.09;;;8.83;100.00
38038;BME280;23843;51.320;12.340;2023-02-19T07:08:11;100275.97;;;8.78;100.00
38038;BME280;23843;51.320;12.340;2023-02-19T07:10:37;100280.31;;;8.60;100.00
38038;BME280;23843;51.320;12.340;2023-02-19T07:13:04;100290.97;;;8.59;100.00
38038;BME280;23843;51.320;12.340;2023-02-19T07:15:30;100292.31;;;8.48;100.00
38038;BME280;23843;51.320;12.340;2023-02-19T07:17:56;100305.66;;;8.45;100.00
38038;BME280;23843;51.320;12.340;2023-02-19T07:20:23;100306.25;;;8.31;100.00
38038;BME280;23843;51.320;12.340;2023-02-19T07:22:49;100307.13;;;8.32;100.00
38038;BME280;23843;51.320;12.340;2023-02-19T07:25:17;100331.88;;;8.29;100.00
38038;BME280;23843;51.320;12.340;2023-02-19T07:27:43;100338.41;;;8.21;100.00
38038;BME280;23843;51.320;12.340;2023-02-19T07:30:10;100355.31;;;8.17;100.00
38038;BME280;23843;51.320;12.340;2023-02-19T07:32:39;100365.75;;;7.99;100.00
38038;BME280;23843;51.320;12.340;2023-02-19T07:35:06;100370.63;;;7.88;100.00
38038;BME280;23843;51.320;12.340;2023-02-19T07:37:31;100374.69;;;7.75;100.00
38038;BME280;23843;51.320;12.340;2023-02-19T07:39:57;100374.41;;;7.60;100.00
38038;BME280;23843;51.320;12.340;2023-02-19T07:42:22;100380.84;;;7.53;100.00
38038;BME280;23843;51.320;12.340;2023-02-19T07:44:49;100396.81;;;7.50;100.00
38038;BME280;23843;51.320;12.340;2023-02-19T07:47:17;100402.22;;;7.47;100.00
38038;BME280;23843;51.320;12.340;2023-02-19T07:49:43;100411.50;;;7.34;100.00
38038;BME280;23843;51.320;12.340;2023-02-19T07:52:09;100418.19;;;7.20;100.00
38038;BME280;23843;51.320;12.340;2023-02-19T07:54:40;100424.63;;;7.13;100.00
38038;BME280;23843;51.320;12.340;2023-02-19T07:57:05;100431.41;;;7.19;100.00
38038;BME280;23843;51.320;12.340;2023-02-19T07:59:31;100442.34;;;7.10;100.00
38038;BME280;23843;51.320;12.340;2023-02-19T08:01:57;100451.31;;;7.04;100.00
38038;BME280;23843;51.320;12.340;2023-02-19T08:04:26;100454.38;;;6.93;100.00
38038;BME280;23843;51.320;12.340;2023-02-19T08:06:52;100454.28;;;6.95;100.00
38038;BME280;23843;51.320;12.340;2023-02-19T08:09:18;100462.47;;;6.87;100.00
38038;BME280;23843;51.320;12.340;2023-02-19T08:11:44;100469.47;;;6.88;100.00
38038;BME280;23843;51.320;12.340;2023-02-19T08:14:10;100479.84;;;6.93;100.00
38038;BME280;23843;51.320;12.340;2023-02-19T08:16:36;100478.34;;;6.85;100.00
38038;BME280;23843;51.320;12.340;2023-02-19T08:19:03;100476.75;;;6.81;100.00
38038;BME280;23843;51.320;12.340;2023-02-19T08:21:31;100497.56;;;6.88;100.00
38038;BME280;23843;51.320;12.340;2023-02-19T08:23:57;100493.56;;;6.77;100.00
38038;BME280;23843;51.320;12.340;2023-02-19T08:26:23;100519.56;;;6.86;100.00
38038;BME280;23843;51.320;12.340;2023-02-19T08:28:49;100515.09;;;6.89;100.00
38038;BME280;23843;51.320;12.340;2023-02-19T08:31:16;100533.66;;;6.85;100.00
38038;BME280;23843;51.320;12.340;2023-02-19T08:33:43;100545.41;;;6.75;100.00
38038;BME280;23843;51.320;12.340;2023-02-19T08:36:10;100550.06;;;6.69;100.00
38038;BME280;23843;51.320;12.340;2023-02-19T08:38:37;100552.69;;;6.69;100.00
38038;BME280;23843;51.320;12.340;2023-02-19T08:41:05;100564.97;;;6.68;100.00
38038;BME280;23843;51.320;12.340;2023-02-19T08:43:30;100554.84;;;6.56;100.00
38038;BME280;23843;51.320;12.340;2023-02-19T08:45:56;100572.06;;;6.66;100.00
38038;BME280;23843;51.320;12.340;2023-02-19T08:48:21;100581.28;;;6.53;100.00
38038;BME280;23843;51.320;12.340;2023-02-19T08:50:55;100574.31;;;6.52;100.00
38038;BME280;23843;51.320;12.340;2023-02-19T08:53:22;100591.13;;;6.48;100.00
38038;BME280;23843;51.320;12.340;2023-02-19T08:55:50;100594.03;;;6.38;100.00
38038;BME280;23843;51.320;12.340;2023-02-19T08:58:16;100609.34;;;6.27;100.00
38038;BME280;23843;51.320;12.340;2023-02-19T09:00:42;100613.91;;;6.22;100.00
38038;BME280;23843;51.320;12.340;2023-02-19T09:03:08;100625.56;;;6.13;100.00
38038;BME280;23843;51.320;12.340;2023-02-19T09:05:35;100628.56;;;6.01;100.00
38038;BME280;23843;51.320;12.340;2023-02-19T09:08:02;100625.91;;;6.03;100.00
38038;BME280;23843;51.320;12.340;2023-02-19T09:10:28;100635.31;;;6.10;100.00
38038;BME280;23843;51.320;12.340;2023-02-19T09:12:55;100644.88;;;6.12;100.00
38038;BME280;23843;51.320;12.340;2023-02-19T09:15:20;100640.81;;;6.30;100.00
38038;BME280;23843;51.320;12.340;2023-02-19T09:17:50;100648.47;;;6.36;100.00
38038;BME280;23843;51.320;12.340;2023-02-19T09:20:15;100657.31;;;6.35;100.00
38038;BME280;23843;51.320;12.340;2023-02-19T09:22:41;100666.72;;;6.42;100.00
38038;BME280;23843;51.320;12.340;2023-02-19T09:25:06;100675.28;;;6.49;100.00
38038;BME280;23843;51.320;12.340;2023-02-19T09:27:33;100675.72;;;6.35;100.00
38038;BME280;23843;51.320;12.340;2023-02-19T09:30:00;100672.69;;;6.48;100.00
38038;BME280;23843;51.320;12.340;2023-02-19T09:32:25;100671.84;;;6.47;100.00
38038;BME280;23843;51.320;12.340;2023-02-19T09:34:51;100669.06;;;6.52;100.00
38038;BME280;23843;51.320;12.340;2023-02-19T09:37:16;100685.88;;;6.74;100.00
38038;BME280;23843;51.320;12.340;2023-02-19T09:39:42;100682.28;;;6.77;100.00
38038;BME280;23843;51.320;12.340;2023-02-19T09:42:11;100685.00;;;7.00;100.00
38038;BME280;23843;51.320;12.340;2023-02-19T09:44:41;100688.94;;;7.14;100.00
38038;BME280;23843;51.320;12.340;2023-02-19T09:47:15;100701.03;;;7.19;100.00
38038;BME280;23843;51.320;12.340;2023-02-19T09:49:43;100690.78;;;7.37;100.00
38038;BME280;23843;51.320;12.340;2023-02-19T09:52:13;100702.44;;;7.55;100.00
38038;BME280;23843;51.320;12.340;2023-02-19T09:54:44;100705.03;;;7.80;100.00
38038;BME280;23843;51.320;12.340;2023-02-19T09:57:13;100712.66;;;7.87;100.00
38038;BME280;23843;51.320;12.340;2023-02-19T09:59:40;100722.66;;;8.03;100.00
38038;BME280;23843;51.320;12.340;2023-02-19T10:02:13;100723.81;;;8.41;100.00
38038;BME280;23843;51.320;12.340;2023-02-19T10:04:42;100723.72;;;8.44;100.00
38038;BME280;23843;51.320;12.340;2023-02-19T10:07:11;100731.53;;;8.47;100.00
38038;BME280;23843;51.320;12.340;2023-02-19T10:09:39;100746.97;;;8.34;100.00
38038;BME280;23843;51.320;12.340;2023-02-19T10:12:12;100754.31;;;8.50;100.00
38038;BME280;23843;51.320;12.340;2023-02-19T10:14:41;100754.69;;;8.39;100.00
38038;BME280;23843;51.320;12.340;2023-02-19T10:17:16;100762.97;;;8.30;100.00
38038;BME280;23843;51.320;12.340;2023-02-19T10:19:45;100759.06;;;8.17;100.00
38038;BME280;23843;51.320;12.340;2023-02-19T10:22:11;100764.75;;;8.06;100.00
38038;BME280;23843;51.320;12.340;2023-02-19T10:24:40;100771.22;;;8.21;100.00
38038;BME280;23843;51.320;12.340;2023-02-19T10:27:10;100768.97;;;8.33;100.00
38038;BME280;23843;51.320;12.340;2023-02-19T10:29:37;100771.28;;;8.66;100.00
38038;BME280;23843;51.320;12.340;2023-02-19T10:32:16;100776.56;;;8.88;100.00
38038;BME280;23843;51.320;12.340;2023-02-19T10:34:43;100779.63;;;8.77;100.00
38038;BME280;23843;51.320;12.340;2023-02-19T10:37:12;100786.69;;;8.77;100.00
38038;BME280;23843;51.320;12.340;2023-02-19T10:39:41;100797.88;;;8.84;100.00
38038;BME280;23843;51.320;12.340;2023-02-19T10:42:14;100796.56;;;8.72;100.00
38038;BME280;23843;51.320;12.340;2023-02-19T10:44:45;100796.44;;;8.53;100.00
38038;BME280;23843;51.320;12.340;2023-02-19T10:47:17;100804.81;;;8.41;100.00
38038;BME280;23843;51.320;12.340;2023-02-19T10:49:44;100808.66;;;8.55;100.00
38038;BME280;23843;51.320;12.340;2023-02-19T10:52:12;100814.38;;;8.67;100.00
38038;BME280;23843;51.320;12.340;2023-02-19T10:54:39;100816.09;;;8.68;100.00
38038;BME280;23843;51.320;12.340;2023-02-19T10:57:24;100822.88;;;8.75;100.00
38038;BME280;23843;51.320;12.340;2023-02-19T10:59:51;100830.22;;;8.67;100.00
38038;BME280;23843;51.320;12.340;2023-02-19T11:02:20;100832.16;;;8.38;100.00
38038;BME280;23843;51.320;12.340;2023-02-19T11:05:02;100846.34;;;8.35;100.00
38038;BME280;23843;51.320;12.340;2023-02-19T11:07:29;100851.06;;;8.51;100.00
38038;BME280;23843;51.320;12.340;2023-02-19T11:09:55;100849.38;;;8.50;100.00
38038;BME280;23843;51.320;12.340;2023-02-19T11:12:24;100855.66;;;8.69;100.00
38038;BME280;23843;51.320;12.340;2023-02-19T11:14:50;100859.00;;;8.51;100.00
38038;BME280;23843;51.320;12.340;2023-02-19T11:17:22;100853.78;;;8.49;100.00
38038;BME280;23843;51.320;12.340;2023-02-19T11:19:51;100861.75;;;8.48;100.00
38038;BME280;23843;51.320;12.340;2023-02-19T11:22:26;100859.19;;;8.46;100.00
38038;BME280;23843;51.320;12.340;2023-02-19T11:25:02;100873.41;;;8.42;100.00
38038;BME280;23843;51.320;12.340;2023-02-19T11:27:29;100875.47;;;8.57;100.00
38038;BME280;23843;51.320;12.340;2023-02-19T11:30:21;100876.13;;;8.64;100.00
38038;BME280;23843;51.320;12.340;2023-02-19T11:35:33;100882.72;;;8.76;100.00
38038;BME280;23843;51.320;12.340;2023-02-19T11:38:00;100886.38;;;8.72;98.33
38038;BME280;23843;51.320;12.340;2023-02-19T11:40:36;100884.56;;;8.74;99.76
38038;BME280;23843;51.320;12.340;2023-02-19T11:43:11;100884.44;;;8.77;100.00
38038;BME280;23843;51.320;12.340;2023-02-19T11:45:47;100891.25;;;8.83;100.00
38038;BME280;23843;51.320;12.340;2023-02-19T11:48:42;100898.56;;;8.76;100.00
38038;BME280;23843;51.320;12.340;2023-02-19T11:51:23;100903.72;;;8.79;99.26
38038;BME280;23843;51.320;12.340;2023-02-19T11:54:02;100897.47;;;8.82;100.00
38038;BME280;23843;51.320;12.340;2023-02-19T11:56:33;100900.91;;;8.84;100.00
38038;BME280;23843;51.320;12.340;2023-02-19T11:59:01;100899.28;;;8.79;100.00
38038;BME280;23843;51.320;12.340;2023-02-19T12:01:43;100890.22;;;8.87;100.00
38038;BME280;23843;51.320;12.340;2023-02-19T12:07:18;100889.13;;;8.92;98.35
38038;BME280;23843;51.320;12.340;2023-02-19T12:10:02;100890.84;;;8.93;100.00
38038;BME280;23843;51.320;12.340;2023-02-19T12:12:45;100896.66;;;8.79;94.11
38038;BME280;23843;51.320;12.340;2023-02-19T12:15:38;100892.59;;;8.71;92.64
38038;BME280;23843;51.320;12.340;2023-02-19T12:18:20;100909.47;;;8.67;97.16
38038;BME280;23843;51.320;12.340;2023-02-19T12:21:05;100899.66;;;8.47;95.11
38038;BME280;23843;51.320;12.340;2023-02-19T12:23:48;100901.94;;;8.31;100.00
38038;BME280;23843;51.320;12.340;2023-02-19T12:26:21;100903.75;;;8.29;100.00
38038;BME280;23843;51.320;12.340;2023-02-19T12:29:06;100905.72;;;8.24;100.00
38038;BME280;23843;51.320;12.340;2023-02-19T12:31:57;100904.19;;;8.17;100.00
38038;BME280;23843;51.320;12.340;2023-02-19T12:37:46;100907.88;;;8.12;100.00
38038;BME280;23843;51.320;12.340;2023-02-19T12:40:26;100912.09;;;8.18;100.00
38038;BME280;23843;51.320;12.340;2023-02-19T12:43:02;100903.59;;;8.33;100.00
38038;BME280;23843;51.320;12.340;2023-02-19T12:45:37;100909.94;;;8.54;100.00
38038;BME280;23843;51.320;12.340;2023-02-19T12:48:13;100909.47;;;8.67;100.00
38038;BME280;23843;51.320;12.340;2023-02-19T12:50:43;100912.81;;;8.72;100.00
38038;BME280;23843;51.320;12.340;2023-02-19T12:53:20;100915.56;;;8.69;100.00
38038;BME280;23843;51.320;12.340;2023-02-19T12:55:48;100922.25;;;8.77;100.00
38038;BME280;23843;51.320;12.340;2023-02-19T12:58:23;100922.44;;;8.73;99.54
38038;BME280;23843;51.320;12.340;2023-02-19T13:00:52;100921.59;;;8.49;92.51
38038;BME280;23843;51.320;12.340;2023-02-19T13:03:22;100930.28;;;8.26;93.14
38038;BME280;23843;51.320;12.340;2023-02-19T13:05:56;100943.00;;;8.14;95.15
38038;BME280;23843;51.320;12.340;2023-02-19T13:08:29;100943.44;;;8.02;96.12
38038;BME280;23843;51.320;12.340;2023-02-19T13:10:59;100938.53;;;7.90;97.12
38038;BME280;23843;51.320;12.340;2023-02-19T13:13:27;100926.38;;;7.86;100.00
38038;BME280;23843;51.320;12.340;2023-02-19T13:15:59;100923.75;;;7.86;100.00
38038;BME280;23843;51.320;12.340;2023-02-19T13:18:30;100929.31;;;7.77;100.00
38038;BME280;23843;51.320;12.340;2023-02-19T13:21:00;100935.59;;;7.72;95.92
38038;BME280;23843;51.320;12.340;2023-02-19T13:23:32;100939.28;;;7.68;98.48
38038;BME280;23843;51.320;12.340;2023-02-19T13:26:14;100939.16;;;7.71;99.94
38038;BME280;23843;51.320;12.340;2023-02-19T13:28:55;100934.66;;;7.75;100.00
38038;BME280;23843;51.320;12.340;2023-02-19T13:31:40;100935.19;;;7.85;100.00
38038;BME280;23843;51.320;12.340;2023-02-19T13:34:14;100925.97;;;7.98;100.00
38038;BME280;23843;51.320;12.340;2023-02-19T13:36:45;100943.31;;;8.05;93.64
38038;BME280;23843;51.320;12.340;2023-02-19T13:39:14;100950.16;;;8.11;88.77
38038;BME280;23843;51.320;12.340;2023-02-19T13:41:42;100955.41;;;8.12;84.93
38038;BME280;23843;51.320;12.340;2023-02-19T13:44:16;100946.78;;;8.07;83.93
38038;BME280;23843;51.320;12.340;2023-02-19T13:46:44;100943.25;;;8.07;86.56
38038;BME280;23843;51.320;12.340;2023-02-19T13:52:39;100962.50;;;8.10;85.91
38038;BME280;23843;51.320;12.340;2023-02-19T13:58:51;100969.28;;;8.18;85.58
38038;BME280;23843;51.320;12.340;2023-02-19T14:01:17;100977.50;;;8.08;83.47
38038;BME280;23843;51.320;12.340;2023-02-19T14:03:47;100980.69;;;7.93;83.34
38038;BME280;23843;51.320;12.340;2023-02-19T14:06:13;100981.78;;;7.86;79.32
38038;BME280;23843;51.320;12.340;2023-02-19T14:08:49;100989.84;;;7.81;80.85
38038;BME280;23843;51.320;12.340;2023-02-19T14:11:16;100984.84;;;7.72;80.49
38038;BME280;23843;51.320;12.340;2023-02-19T14:14:02;101004.00;;;7.79;86.14
38038;BME280;23843;51.320;12.340;2023-02-19T14:16:29;101000.53;;;7.77;82.64
38038;BME280;23843;51.320;12.340;2023-02-19T14:18:56;100995.16;;;7.80;84.75
38038;BME280;23843;51.320;12.340;2023-02-19T14:21:24;100988.22;;;7.77;82.45
38038;BME280;23843;51.320;12.340;2023-02-19T14:23:52;100978.38;;;7.82;83.53
38038;BME280;23843;51.320;12.340;2023-02-19T14:26:21;100984.47;;;7.84;85.98
38038;BME280;23843;51.320;12.340;2023-02-19T14:28:49;100986.25;;;7.84;84.87
38038;BME280;23843;51.320;12.340;2023-02-19T14:31:29;100986.09;;;7.88;84.68
38038;BME280;23843;51.320;12.340;2023-02-19T14:33:57;100985.16;;;7.89;90.15
38038;BME280;23843;51.320;12.340;2023-02-19T14:36:33;100988.84;;;7.85;85.35
38038;BME280;23843;51.320;12.340;2023-02-19T14:39:03;100984.56;;;7.81;79.89
38038;BME280;23843;51.320;12.340;2023-02-19T14:41:32;100988.88;;;7.84;81.63
38038;BME280;23843;51.320;12.340;2023-02-19T14:44:02;100988.84;;;7.85;85.73
38038;BME280;23843;51.320;12.340;2023-02-19T14:46:31;100996.84;;;7.82;87.56
38038;BME280;23843;51.320;12.340;2023-02-19T14:49:04;100997.88;;;7.78;86.76
38038;BME280;23843;51.320;12.340;2023-02-19T14:51:34;100986.59;;;7.73;84.80
38038;BME280;23843;51.320;12.340;2023-02-19T14:54:10;100989.41;;;7.67;85.42
38038;BME280;23843;51.320;12.340;2023-02-19T14:56:39;100979.94;;;7.61;84.65
38038;BME280;23843;51.320;12.340;2023-02-19T14:59:25;100982.66;;;7.58;87.43
38038;BME280;23843;51.320;12.340;2023-02-19T15:01:56;100985.50;;;7.52;89.64
38038;BME280;23843;51.320;12.340;2023-02-19T15:04:24;100990.06;;;7.47;91.53
38038;BME280;23843;51.320;12.340;2023-02-19T15:06:51;100990.00;;;7.48;92.07
38038;BME280;23843;51.320;12.340;2023-02-19T15:09:19;100991.25;;;7.37;90.46
38038;BME280;23843;51.320;12.340;2023-02-19T15:11:46;100986.78;;;7.39;88.03
38038;BME280;23843;51.320;12.340;2023-02-19T15:14:18;100991.31;;;7.34;88.61
38038;BME280;23843;51.320;12.340;2023-02-19T15:16:45;100992.28;;;7.31;89.56
38038;BME280;23843;51.320;12.340;2023-02-19T15:19:14;100993.44;;;7.22;84.41
38038;BME280;23843;51.320;12.340;2023-02-19T15:21:44;100999.59;;;7.21;81.17
38038;BME280;23843;51.320;12.340;2023-02-19T15:24:12;101009.28;;;7.21;84.71
38038;BME280;23843;51.320;12.340;2023-02-19T15:26:40;100996.31;;;7.15;83.48
38038;BME280;23843;51.320;12.340;2023-02-19T15:29:09;101014.03;;;7.10;87.15
38038;BME280;23843;51.320;12.340;2023-02-19T15:31:35;101012.50;;;7.01;85.35
38038;BME280;23843;51.320;12.340;2023-02-19T15:34:02;101006.41;;;6.99;85.51
38038;BME280;23843;51.320;12.340;2023-02-19T15:36:30;101011.81;;;6.94;88.63
38038;BME280;23843;51.320;12.340;2023-02-19T15:38:59;101010.31;;;6.85;86.37
38038;BME280;23843;51.320;12.340;2023-02-19T15:41:27;101015.75;;;6.79;88.63
38038;BME280;23843;51.320;12.340;2023-02-19T15:44:05;101021.13;;;6.75;91.72
38038;BME280;23843;51.320;12.340;2023-02-19T15:46:34;101017.91;;;6.65;93.07
38038;BME280;23843;51.320;12.340;2023-02-19T15:49:04;101023.28;;;6.60;94.46
38038;BME280;23843;51.320;12.340;2023-02-19T15:51:40;101024.31;;;6.55;95.78
38038;BME280;23843;51.320;12.340;2023-02-19T15:54:16;101023.50;;;6.53;97.86
38038;BME280;23843;51.320;12.340;2023-02-19T15:56:48;101020.97;;;6.48;99.43
38038;BME280;23843;51.320;12.340;2023-02-19T15:59:20;101022.00;;;6.42;99.74
38038;BME280;23843;51.320;12.340;2023-02-19T16:01:48;101027.41;;;6.36;100.00
38038;BME280;23843;51.320;12.340;2023-02-19T16:04:18;101026.66;;;6.33;100.00
38038;BME280;23843;51.320;12.340;2023-02-19T16:06:55;101030.25;;;6.29;100.00
38038;BME280;23843;51.320;12.340;2023-02-19T16:09:26;101034.75;;;6.25;100.00
38038;BME280;23843;51.320;12.340;2023-02-19T16:11:57;101033.91;;;6.23;100.00
38038;BME280;23843;51.320;12.340;2023-02-19T16:14:28;101046.31;;;6.19;100.00
38038;BME280;23843;51.320;12.340;2023-02-19T16:16:58;101050.84;;;6.13;100.00
38038;BME280;23843;51.320;12.340;2023-02-19T16:19:30;101048.22;;;6.13;100.00
38038;BME280;23843;51.320;12.340;2023-02-19T16:22:01;101043.13;;;6.05;100.00
38038;BME280;23843;51.320;12.340;2023-02-19T16:24:32;101050.13;;;6.06;100.00
38038;BME280;23843;51.320;12.340;2023-02-19T16:27:03;101053.78;;;6.00;100.00
38038;BME280;23843;51.320;12.340;2023-02-19T16:29:31;101049.47;;;5.96;100.00
38038;BME280;23843;51.320;12.340;2023-02-19T16:31:59;101048.78;;;5.88;100.00
38038;BME280;23843;51.320;12.340;2023-02-19T16:34:34;101054.16;;;5.82;100.00
38038;BME280;23843;51.320;12.340;2023-02-19T16:37:32;101058.66;;;5.77;100.00
38038;BME280;23843;51.320;12.340;2023-02-19T16:41:05;101080.66;;;5.73;100.00
38038;BME280;23843;51.320;12.340;2023-02-19T16:43:27;101074.63;;;5.69;100.00
38038;BME280;23843;51.320;12.340;2023-02-19T16:45:53;101082.59;;;5.65;100.00
38038;BME280;23843;51.320;12.340;2023-02-19T16:48:20;101077.44;;;5.60;100.00
38038;BME280;23843;51.320;12.340;2023-02-19T16:50:47;101090.69;;;5.55;100.00
38038;BME280;23843;51.320;12.340;2023-02-19T16:53:17;101089.91;;;5.50;100.00
38038;BME280;23843;51.320;12.340;2023-02-19T16:55:43;101101.44;;;5.43;100.00
38038;BME280;23843;51.320;12.340;2023-02-19T16:58:08;101102.38;;;5.41;100.00
38038;BME280;23843;51.320;12.340;2023-02-19T17:00:34;101094.56;;;5.38;100.00
38038;BME280;23843;51.320;12.340;2023-02-19T17:03:01;101092.03;;;5.33;100.00
38038;BME280;23843;51.320;12.340;2023-02-19T17:05:29;101103.47;;;5.30;100.00
38038;BME280;23843;51.320;12.340;2023-02-19T17:07:58;101101.78;;;5.26;100.00
38038;BME280;23843;51.320;12.340;2023-02-19T17:10:26;101108.88;;;5.23;100.00
38038;BME280;23843;51.320;12.340;2023-02-19T17:12:53;101119.47;;;5.20;100.00
38038;BME280;23843;51.320;12.340;2023-02-19T17:15:19;101114.25;;;5.17;100.00
38038;BME280;23843;51.320;12.340;2023-02-19T17:17:45;101127.44;;;5.13;100.00
38038;BME280;23843;51.320;12.340;2023-02-19T17:20:18;101131.03;;;5.09;100.00
38038;BME280;23843;51.320;12.340;2023-02-19T17:22:45;101136.34;;;5.06;100.00
38038;BME280;23843;51.320;12.340;2023-02-19T17:25:11;101130.31;;;5.01;100.00
38038;BME280;23843;51.320;12.340;2023-02-19T17:27:38;101139.13;;;4.97;100.00
38038;BME280;23843;51.320;12.340;2023-02-19T17:30:09;101140.94;;;4.95;100.00
38038;BME280;23843;51.320;12.340;2023-02-19T17:32:36;101140.09;;;4.93;100.00
38038;BME280;23843;51.320;12.340;2023-02-19T17:35:03;101140.97;;;4.92;100.00
38038;BME280;23843;51.320;12.340;2023-02-19T17:37:29;101141.03;;;4.89;100.00
38038;BME280;23843;51.320;12.340;2023-02-19T17:39:56;101137.56;;;4.87;100.00
38038;BME280;23843;51.320;12.340;2023-02-19T17:42:22;101134.94;;;4.87;100.00
38038;BME280;23843;51.320;12.340;2023-02-19T17:44:52;101146.34;;;4.86;100.00
38038;BME280;23843;51.320;12.340;2023-02-19T17:47:19;101146.38;;;4.83;100.00
38038;BME280;23843;51.320;12.340;2023-02-19T17:49:44;101150.81;;;4.81;100.00
38038;BME280;23843;51.320;12.340;2023-02-19T17:52:12;101146.50;;;4.77;100.00
38038;BME280;23843;51.320;12.340;2023-02-19T17:54:37;101152.69;;;4.74;100.00
38038;BME280;23843;51.320;12.340;2023-02-19T17:57:03;101147.44;;;4.72;100.00
38038;BME280;23843;51.320;12.340;2023-02-19T17:59:29;101144.88;;;4.71;100.00
38038;BME280;23843;51.320;12.340;2023-02-19T18:01:57;101143.97;;;4.72;100.00
38038;BME280;23843;51.320;12.340;2023-02-19T18:04:23;101151.03;;;4.68;100.00
38038;BME280;23843;51.320;12.340;2023-02-19T18:06:50;101150.19;;;4.66;100.00
38038;BME280;23843;51.320;12.340;2023-02-19T18:09:15;101158.97;;;4.64;100.00
38038;BME280;23843;51.320;12.340;2023-02-19T18:11:43;101161.59;;;4.64;100.00
38038;BME280;23843;51.320;12.340;2023-02-19T18:14:08;101159.00;;;4.62;100.00
38038;BME280;23843;51.320;12.340;2023-02-19T18:16:34;101164.25;;;4.61;100.00
38038;BME280;23843;51.320;12.340;2023-02-19T18:19:01;101164.31;;;4.59;100.00
38038;BME280;23843;51.320;12.340;2023-02-19T18:21:29;101165.22;;;4.55;100.00
38038;BME280;23843;51.320;12.340;2023-02-19T18:23:55;101163.53;;;4.53;100.00
38038;BME280;23843;51.320;12.340;2023-02-19T18:26:21;101156.63;;;4.47;100.00
38038;BME280;23843;51.320;12.340;2023-02-19T18:28:47;101175.94;;;4.43;100.00
38038;BME280;23843;51.320;12.340;2023-02-19T18:31:14;101176.00;;;4.38;100.00
38038;BME280;23843;51.320;12.340;2023-02-19T18:33:40;101189.16;;;4.37;100.00
38038;BME280;23843;51.320;12.340;2023-02-19T18:36:10;101191.78;;;4.37;100.00
38038;BME280;23843;51.320;12.340;2023-02-19T18:38:36;101182.16;;;4.36;100.00
38038;BME280;23843;51.320;12.340;2023-02-19T18:41:02;101185.69;;;4.33;100.00